Time;durP1;ratioP1;P1;durP2;ratioP2;P2;SDS_P1;SDS_P2;PMS_P1;PMS_P2;Temp;Humidity;BMP_temperature;BMP_pressure;BME280_temperature;BME280_humidity;BME280_pressure;Samples;Min_cycle;Max_cycle;Signal;HPM_P1;HPM_P2
2021/06/11 00:00:12;;;;;;;;;;;;;;;15.62;70.75;100258.80;1668003;85;20137;-86
2021/06/11 00:02:39;;;;;;;;;;;;;;;15.57;71.13;100255.76;1667756;86;20502;-86
2021/06/11 00:05:06;;;;;;;;;;;;;;;15.52;70.52;100252.19;1667520;86;20145;-86
2021/06/11 00:07:33;;;;;;;;;;;;;;;15.51;70.53;100252.34;1667536;85;20157;-86
2021/06/11 00:09:59;;;;;;;;;;;;;;;15.49;70.57;100251.98;1668017;85;20181;-86
2021/06/11 00:12:25;;;;;;;;;;;;;;;15.46;70.65;100245.64;1667876;85;20158;-86
2021/06/11 00:14:51;;;;;;;;;;;;;;;15.43;70.75;100243.27;1668390;86;20157;-86
2021/06/11 00:17:16;;;;;;;;;;;;;;;15.41;70.63;100243.90;1667717;86;20137;-86
2021/06/11 00:19:42;;;;;;;;;;;;;;;15.39;70.70;100245.85;1668277;85;20160;-86
2021/06/11 00:22:08;;;;;;;;;;;;;;;15.38;70.58;100246.84;1667719;85;20168;-86
2021/06/11 00:24:34;;;;;;;;;;;;;;;15.37;70.73;100247.00;1668183;85;20168;-86
2021/06/11 00:26:59;;;;;;;;;;;;;;;15.33;70.82;100243.77;1667950;85;20168;-86
2021/06/11 00:29:25;;;;;;;;;;;;;;;15.32;70.88;100247.41;1666903;85;20156;-86
2021/06/11 00:31:51;;;;;;;;;;;;;;;15.30;70.87;100250.73;1666720;86;20201;-86
2021/06/11 00:34:16;;;;;;;;;;;;;;;15.29;70.57;100247.70;1666632;86;20416;-86
2021/06/11 00:36:42;;;;;;;;;;;;;;;15.27;71.13;100248.36;1666730;86;20121;-86
2021/06/11 00:39:08;;;;;;;;;;;;;;;15.25;71.32;100248.48;1666568;86;20164;-86
2021/06/11 00:41:34;;;;;;;;;;;;;;;15.21;71.49;100243.11;1666543;86;20403;-86
2021/06/11 00:43:59;;;;;;;;;;;;;;;15.18;72.01;100247.38;1667670;86;20181;-86
2021/06/11 00:46:25;;;;;;;;;;;;;;;15.14;72.05;100241.18;1667841;86;20141;-86
2021/06/11 00:48:51;;;;;;;;;;;;;;;15.13;71.90;100244.80;1668210;85;20201;-86
2021/06/11 00:51:19;;;;;;;;;;;;;;;15.12;71.92;100247.11;1668146;86;20168;-86
2021/06/11 00:53:45;;;;;;;;;;;;;;;15.09;72.09;100242.92;1668117;85;20164;-86
2021/06/11 00:56:11;;;;;;;;;;;;;;;15.08;71.98;100242.58;1668379;86;20125;-86
2021/06/11 00:58:37;;;;;;;;;;;;;;;15.08;72.08;100236.43;1666891;85;20427;-86
2021/06/11 01:01:02;;;;;;;;;;;;;;;15.06;72.11;100232.56;1667895;86;20136;-86
2021/06/11 01:03:29;;;;;;;;;;;;;;;15.06;72.33;100235.72;1667681;86;20165;-86
2021/06/11 01:05:55;;;;;;;;;;;;;;;15.05;72.66;100232.72;1666257;85;20134;-86
2021/06/11 01:08:21;;;;;;;;;;;;;;;15.04;72.16;100231.03;1667760;86;20165;-85
2021/06/11 01:10:47;;;;;;;;;;;;;;;15.04;72.67;100227.04;1668023;85;20141;-86
2021/06/11 01:13:15;;;;;;;;;;;;;;;15.03;72.56;100223.55;1667984;85;20156;-86
2021/06/11 01:15:42;;;;;;;;;;;;;;;15.01;72.68;100225.53;1667956;85;20478;-86
2021/06/11 01:18:07;;;;;;;;;;;;;;;14.99;72.77;100220.84;1685386;85;20157;-86
2021/06/11 01:20:33;;;;;;;;;;;;;;;14.97;72.52;100224.98;1666942;86;20137;-86
2021/06/11 01:23:36;;;;;;;;;;;;;;;14.97;72.63;100230.76;1668093;85;20149;-86
2021/06/11 01:26:18;;;;;;;;;;;;;;;14.95;73.19;100224.77;1668275;85;20141;-86
2021/06/11 01:28:44;;;;;;;;;;;;;;;14.91;72.81;100217.58;1667886;85;20138;-85
2021/06/11 01:31:11;;;;;;;;;;;;;;;14.90;73.47;100225.17;1668491;85;20447;-86
2021/06/11 01:33:37;;;;;;;;;;;;;;;14.86;72.87;100215.81;1667927;86;20205;-86
2021/06/11 01:36:11;;;;;;;;;;;;;;;14.84;73.08;100220.45;1668441;86;20999;-86
2021/06/11 01:38:39;;;;;;;;;;;;;;;14.84;73.23;100216.47;1667916;85;20447;-86
2021/06/11 01:41:07;;;;;;;;;;;;;;;14.84;73.37;100215.60;1646515;86;20414;-86
2021/06/11 01:43:34;;;;;;;;;;;;;;;14.83;73.48;100220.08;1666753;86;20168;-86
2021/06/11 01:46:00;;;;;;;;;;;;;;;14.83;73.50;100216.09;1666641;85;20152;-86
2021/06/11 01:48:27;;;;;;;;;;;;;;;14.83;73.68;100220.58;1666766;86;20278;-86
2021/06/11 01:50:54;;;;;;;;;;;;;;;14.83;73.82;100223.23;1666592;86;20511;-86
2021/06/11 01:53:20;;;;;;;;;;;;;;;14.82;74.02;100215.76;1666789;85;20145;-86
2021/06/11 01:55:47;;;;;;;;;;;;;;;14.81;74.46;100218.08;1645551;86;20507;-86
2021/06/11 01:58:16;;;;;;;;;;;;;;;14.82;73.82;100216.25;1667142;85;20141;-86
2021/06/11 02:00:42;;;;;;;;;;;;;;;14.81;74.81;100210.57;1668248;85;20157;-86
2021/06/11 02:03:08;;;;;;;;;;;;;;;14.79;75.48;100213.38;1667873;85;20172;-86
2021/06/11 02:05:34;;;;;;;;;;;;;;;14.76;74.43;100216.32;1667923;86;20129;-86
2021/06/11 02:08:01;;;;;;;;;;;;;;;14.75;75.60;100206.69;1667497;86;20210;-86
2021/06/11 02:10:27;;;;;;;;;;;;;;;14.73;75.12;100213.94;1668337;86;20153;-86
2021/06/11 02:12:53;;;;;;;;;;;;;;;14.73;75.17;100204.16;1658814;85;20159;-86
2021/06/11 02:15:20;;;;;;;;;;;;;;;14.73;74.62;100208.14;1695971;84;20135;-86
2021/06/11 02:17:47;;;;;;;;;;;;;;;14.73;75.05;100212.12;1696231;85;20131;-86
2021/06/11 02:20:15;;;;;;;;;;;;;;;14.73;74.92;100207.30;1640914;87;20469;-86
2021/06/11 02:22:44;;;;;;;;;;;;;;;14.73;75.04;100207.30;1641144;87;20151;-86
2021/06/11 02:25:12;;;;;;;;;;;;;;;14.73;74.86;100206.81;1641150;87;20151;-86
2021/06/11 02:27:39;;;;;;;;;;;;;;;14.74;74.96;100207.64;1658159;86;20157;-86
2021/06/11 02:30:07;;;;;;;;;;;;;;;14.72;75.02;100210.45;1668294;85;20462;-86
2021/06/11 02:32:34;;;;;;;;;;;;;;;14.72;74.99;100210.45;1667811;86;20188;-86
2021/06/11 02:35:03;;;;;;;;;;;;;;;14.72;75.11;100206.96;1647061;86;20454;-86
2021/06/11 02:37:28;;;;;;;;;;;;;;;14.73;75.10;100209.95;1666282;85;20997;-86
2021/06/11 02:39:54;;;;;;;;;;;;;;;14.72;75.83;100210.45;1668321;86;20172;-86
2021/06/11 02:42:20;;;;;;;;;;;;;;;14.71;75.55;100213.27;1668120;85;20221;-86
2021/06/11 02:44:49;;;;;;;;;;;;;;;14.70;75.30;100210.23;1667905;85;20172;-86
2021/06/11 02:47:37;;;;;;;;;;;;;;;14.70;75.97;100208.41;1667966;85;20145;-84
2021/06/11 02:50:06;;;;;;;;;;;;;;;14.68;75.18;100209.06;1668027;85;20133;-84
2021/06/11 02:52:33;;;;;;;;;;;;;;;14.68;75.40;100210.39;1668125;86;20451;-84
2021/06/11 02:55:00;;;;;;;;;;;;;;;14.70;75.12;100214.22;1666622;85;20156;-84
2021/06/11 02:57:44;;;;;;;;;;;;;;;14.72;75.31;100222.90;1666522;85;20566;-84
2021/06/11 03:00:11;;;;;;;;;;;;;;;14.72;75.36;100219.75;1666759;85;20244;-85
2021/06/11 03:02:40;;;;;;;;;;;;;;;14.72;75.68;100213.60;1640997;87;20128;-85
2021/06/11 03:05:11;;;;;;;;;;;;;;;14.73;75.51;100215.27;1667033;86;20164;-85
2021/06/11 03:07:39;;;;;;;;;;;;;;;14.74;76.01;100223.11;1663438;86;20181;-85
2021/06/11 03:10:07;;;;;;;;;;;;;;;14.75;76.08;100218.64;1668189;86;20157;-85
2021/06/11 03:12:33;;;;;;;;;;;;;;;14.76;76.84;100217.64;1668043;85;20129;-85
2021/06/11 03:14:59;;;;;;;;;;;;;;;14.77;76.77;100218.85;1668253;85;20169;-85
2021/06/11 03:17:28;;;;;;;;;;;;;;;14.78;77.35;100210.39;1666691;86;20170;-85
2021/06/11 03:19:57;;;;;;;;;;;;;;;14.79;77.79;100208.07;1666564;85;20137;-85
2021/06/11 03:22:26;;;;;;;;;;;;;;;14.83;78.04;100212.61;1666502;86;20188;-85
2021/06/11 03:25:12;;;;;;;;;;;;;;;14.86;77.95;100209.67;1666641;86;20152;-85
2021/06/11 03:27:42;;;;;;;;;;;;;;;14.90;78.13;100211.05;1666725;86;20141;-83
2021/06/11 03:30:10;;;;;;;;;;;;;;;14.94;78.39;100207.99;1666646;85;20201;-84
2021/06/11 03:32:42;;;;;;;;;;;;;;;15.00;78.25;100207.89;1666489;85;20133;-85
2021/06/11 03:35:22;;;;;;;;;;;;;;;15.06;78.37;100215.80;1666925;85;20138;-84
2021/06/11 03:37:51;;;;;;;;;;;;;;;15.09;78.86;100215.51;1666522;85;20415;-84
2021/06/11 03:40:25;;;;;;;;;;;;;;;15.13;78.77;100217.72;1657337;86;20141;-83
2021/06/11 03:42:52;;;;;;;;;;;;;;;15.19;78.94;100212.33;1667544;86;20173;-84
2021/06/11 03:45:19;;;;;;;;;;;;;;;15.24;79.04;100217.58;1668296;85;20153;-85
2021/06/11 03:47:47;;;;;;;;;;;;;;;15.30;78.97;100215.30;1668029;85;20168;-85
2021/06/11 03:50:16;;;;;;;;;;;;;;;15.34;78.95;100218.88;1663942;86;20160;-85
2021/06/11 03:52:43;;;;;;;;;;;;;;;15.39;79.07;100207.80;1666804;85;20177;-85
2021/06/11 03:55:16;;;;;;;;;;;;;;;15.45;79.17;100210.71;1666501;86;20125;-85
2021/06/11 03:57:43;;;;;;;;;;;;;;;15.49;79.30;100204.11;1666735;86;20187;-85
2021/06/11 04:00:10;;;;;;;;;;;;;;;15.55;79.41;100209.84;1667047;86;20146;-85
2021/06/11 04:02:35;;;;;;;;;;;;;;;15.59;79.43;100208.56;1667987;86;20160;-84
2021/06/11 04:05:01;;;;;;;;;;;;;;;15.64;79.51;100215.12;1668032;85;20192;-84
2021/06/11 04:07:50;;;;;;;;;;;;;;;15.68;79.18;100215.20;1665242;85;20141;-85
2021/06/11 04:10:19;;;;;;;;;;;;;;;15.74;79.33;100212.45;1665934;86;20164;-84
2021/06/11 04:12:53;;;;;;;;;;;;;;;15.80;79.37;100211.03;1666682;86;20121;-85
2021/06/11 04:15:19;;;;;;;;;;;;;;;15.84;79.16;100213.23;1668041;85;20157;-85
2021/06/11 04:17:50;;;;;;;;;;;;;;;15.88;79.29;100214.61;1656462;85;20133;-86
2021/06/11 04:20:21;;;;;;;;;;;;;;;15.92;79.22;100214.66;1662532;86;20145;-86
2021/06/11 04:22:49;;;;;;;;;;;;;;;15.95;79.03;100213.03;1667286;85;20192;-84
2021/06/11 04:25:16;;;;;;;;;;;;;;;16.00;79.23;100215.76;1667087;85;20129;-84
2021/06/11 04:27:43;;;;;;;;;;;;;;;16.02;78.97;100217.26;1668171;85;20161;-86
2021/06/11 04:30:10;;;;;;;;;;;;;;;16.05;78.99;100220.95;1668015;85;20125;-85
2021/06/11 04:32:37;;;;;;;;;;;;;;;16.08;79.07;100218.50;1668048;86;20581;-89
2021/06/11 04:35:03;;;;;;;;;;;;;;;16.11;78.85;100216.37;1665764;86;20098;-85
2021/06/11 04:37:29;;;;;;;;;;;;;;;16.15;78.94;100211.58;1662790;86;20446;-85
2021/06/11 04:39:55;;;;;;;;;;;;;;;16.19;79.01;100216.97;1660970;85;20102;-85
2021/06/11 04:42:20;;;;;;;;;;;;;;;16.23;78.73;100210.85;1668559;85;20157;-87
2021/06/11 04:44:46;;;;;;;;;;;;;;;16.26;78.80;100214.55;1696023;84;20405;-86
2021/06/11 04:47:12;;;;;;;;;;;;;;;16.29;78.63;100211.09;1685025;84;20163;-85
2021/06/11 04:49:38;;;;;;;;;;;;;;;16.33;78.75;100207.13;1696466;85;20159;-85
2021/06/11 04:52:04;;;;;;;;;;;;;;;16.38;78.77;100211.98;1696024;84;20198;-85
2021/06/11 04:54:30;;;;;;;;;;;;;;;16.41;78.67;100216.51;1696280;84;20119;-85
2021/06/11 04:56:56;;;;;;;;;;;;;;;16.46;78.39;100212.08;1696169;84;20175;-85
2021/06/11 04:59:22;;;;;;;;;;;;;;;16.50;78.26;100219.27;1695926;85;20513;-86
2021/06/11 05:01:47;;;;;;;;;;;;;;;16.53;78.42;100217.13;1696418;84;20151;-86
2021/06/11 05:04:14;;;;;;;;;;;;;;;16.55;78.35;100216.50;1696323;85;20100;-85
2021/06/11 05:06:40;;;;;;;;;;;;;;;16.60;78.21;100220.02;1690178;84;20148;-86
2021/06/11 05:09:05;;;;;;;;;;;;;;;16.65;78.34;100221.75;1668444;86;20447;-86
2021/06/11 05:11:31;;;;;;;;;;;;;;;16.72;78.59;100213.98;1667965;86;20185;-84
2021/06/11 05:13:57;;;;;;;;;;;;;;;16.78;78.58;100216.89;1692986;85;20138;-84
2021/06/11 05:16:23;;;;;;;;;;;;;;;16.84;78.47;100210.92;1696086;84;20138;-86
2021/06/11 05:18:48;;;;;;;;;;;;;;;16.91;78.32;100216.97;1696321;84;20437;-89
2021/06/11 05:21:14;;;;;;;;;;;;;;;16.95;78.16;100212.53;1696415;84;20108;-85
2021/06/11 05:23:40;;;;;;;;;;;;;;;17.01;78.30;100202.58;1696090;84;20151;-87
2021/06/11 05:26:05;;;;;;;;;;;;;;;17.07;78.39;100210.42;1696504;84;20112;-86
2021/06/11 05:28:31;;;;;;;;;;;;;;;17.13;78.10;100210.31;1696043;84;20786;-86
2021/06/11 05:30:57;;;;;;;;;;;;;;;17.18;77.88;100212.85;1696469;84;20147;-85
2021/06/11 05:33:23;;;;;;;;;;;;;;;17.21;77.87;100205.02;1696084;84;20178;-84
2021/06/11 05:35:50;;;;;;;;;;;;;;;17.24;77.76;100216.23;1696304;85;20147;-84
2021/06/11 05:38:17;;;;;;;;;;;;;;;17.28;77.74;100212.25;1696292;84;20134;-84
2021/06/11 05:40:43;;;;;;;;;;;;;;;17.34;77.86;100215.62;1696092;84;20135;-84
2021/06/11 05:43:09;;;;;;;;;;;;;;;17.40;77.74;100214.64;1696225;84;20143;-83
2021/06/11 05:45:35;;;;;;;;;;;;;;;17.46;77.83;100208.67;1696117;84;20424;-84
2021/06/11 05:48:02;;;;;;;;;;;;;;;17.51;77.60;100207.71;1696123;85;20176;-86
2021/06/11 05:50:29;;;;;;;;;;;;;;;17.58;77.39;100210.08;1696377;85;20146;-84
2021/06/11 05:52:56;;;;;;;;;;;;;;;17.64;77.31;100212.11;1696218;84;20131;-85
2021/06/11 05:55:22;;;;;;;;;;;;;;;17.72;77.37;100213.47;1696293;84;20099;-84
2021/06/11 05:57:48;;;;;;;;;;;;;;;17.77;76.93;100208.53;1695882;84;20161;-84
2021/06/11 06:00:14;;;;;;;;;;;;;;;17.82;76.95;100205.37;1696352;85;20099;-85
2021/06/11 06:02:40;;;;;;;;;;;;;;;17.89;76.92;100209.56;1696225;85;20425;-83
2021/06/11 06:05:08;;;;;;;;;;;;;;;17.95;76.40;100202.25;1696178;85;20127;-83
2021/06/11 06:07:37;;;;;;;;;;;;;;;18.01;76.41;100201.60;1679742;85;20156;-86
2021/06/11 06:10:07;;;;;;;;;;;;;;;18.06;76.23;100204.60;1668104;86;20120;-85
2021/06/11 06:12:33;;;;;;;;;;;;;;;18.14;76.17;100211.31;1668375;86;20165;-84
2021/06/11 06:14:59;;;;;;;;;;;;;;;18.23;75.98;100209.52;1668120;85;20538;-85
2021/06/11 06:17:25;;;;;;;;;;;;;;;18.32;75.53;100203.66;1668128;85;20168;-86
2021/06/11 06:19:51;;;;;;;;;;;;;;;18.39;75.30;100209.51;1668322;86;20148;-86
2021/06/11 06:22:17;;;;;;;;;;;;;;;18.46;75.14;100207.88;1668040;85;20129;-85
2021/06/11 06:24:44;;;;;;;;;;;;;;;18.56;75.11;100217.55;1668465;86;20142;-85
2021/06/11 06:27:09;;;;;;;;;;;;;;;18.61;74.74;100211.22;1667794;86;20188;-84
2021/06/11 06:29:35;;;;;;;;;;;;;;;18.68;74.49;100210.37;1668332;85;20165;-84
2021/06/11 06:32:04;;;;;;;;;;;;;;;18.77;74.48;100216.60;1668147;85;20596;-82
2021/06/11 06:34:29;;;;;;;;;;;;;;;18.85;74.58;100213.91;1668159;86;20129;-86
2021/06/11 06:36:54;;;;;;;;;;;;;;;18.92;74.47;100216.75;1668283;86;20164;-86
2021/06/11 06:39:20;;;;;;;;;;;;;;;18.98;73.86;100212.06;1668086;85;20212;-84
2021/06/11 06:41:46;;;;;;;;;;;;;;;19.05;73.88;100210.89;1668351;85;20172;-84
2021/06/11 06:44:12;;;;;;;;;;;;;;;19.13;73.48;100207.72;1668122;85;20164;-85
2021/06/11 06:46:38;;;;;;;;;;;;;;;19.22;73.24;100208.55;1668385;86;20138;-85
2021/06/11 06:49:03;;;;;;;;;;;;;;;19.32;72.64;100211.86;1666626;86;20157;-84
2021/06/11 06:51:34;;;;;;;;;;;;;;;19.38;72.34;100203.64;1665574;85;20511;-85
2021/06/11 06:54:02;;;;;;;;;;;;;;;19.43;72.70;100207.98;1667891;85;20133;-84
2021/06/11 06:56:29;;;;;;;;;;;;;;;19.50;72.62;100206.28;1665084;85;20141;-83
2021/06/11 06:58:55;;;;;;;;;;;;;;;19.59;72.67;100209.78;1665377;85;20126;-86
2021/06/11 07:01:24;;;;;;;;;;;;;;;19.64;72.51;100214.13;1665494;86;20134;-84
2021/06/11 07:03:48;;;;;;;;;;;;;;;19.73;71.58;100205.06;1664539;86;20138;-83
2021/06/11 07:06:14;;;;;;;;;;;;;;;19.83;71.45;100215.06;1665903;85;20444;-84
2021/06/11 07:08:40;;;;;;;;;;;;;;;19.92;70.68;100211.84;1665065;86;20141;-84
2021/06/11 07:11:06;;;;;;;;;;;;;;;20.01;70.77;100218.84;1665750;86;20098;-85
2021/06/11 07:13:32;;;;;;;;;;;;;;;20.09;71.15;100217.95;1664967;85;20600;-84
2021/06/11 07:15:59;;;;;;;;;;;;;;;20.15;70.66;100219.42;1665979;85;20118;-84
2021/06/11 07:18:25;;;;;;;;;;;;;;;20.22;70.53;100221.41;1666482;85;20478;-86
2021/06/11 07:20:50;;;;;;;;;;;;;;;20.30;70.38;100224.02;1665425;86;20160;-86
2021/06/11 07:23:16;;;;;;;;;;;;;;;20.35;70.11;100219.80;1665342;86;20106;-86
2021/06/11 07:25:42;;;;;;;;;;;;;;;20.42;70.03;100223.95;1666401;85;20180;-87
2021/06/11 07:28:07;;;;;;;;;;;;;;;20.49;70.09;100223.55;1668177;86;20471;-87
2021/06/11 07:30:33;;;;;;;;;;;;;;;20.55;69.99;100222.88;1668363;86;20160;-86
2021/06/11 07:32:59;;;;;;;;;;;;;;;20.65;69.62;100219.13;1668014;86;20208;-87
2021/06/11 07:35:24;;;;;;;;;;;;;;;20.71;69.72;100223.78;1668351;86;20168;-85
2021/06/11 07:37:50;;;;;;;;;;;;;;;20.79;69.28;100217.00;1667997;86;20197;-84
2021/06/11 07:40:16;;;;;;;;;;;;;;;20.87;69.57;100224.16;1668353;86;20126;-86
2021/06/11 07:42:42;;;;;;;;;;;;;;;20.95;68.97;100218.71;1668249;86;20415;-86
2021/06/11 07:45:09;;;;;;;;;;;;;;;21.03;68.57;100217.31;1668240;86;20503;-83
2021/06/11 07:47:35;;;;;;;;;;;;;;;21.14;68.55;100210.66;1668181;86;20147;-90
2021/06/11 07:50:01;;;;;;;;;;;;;;;21.27;68.60;100209.01;1668003;86;20514;-84
2021/06/11 07:52:27;;;;;;;;;;;;;;;21.41;67.46;100205.20;1672290;85;20171;-86
2021/06/11 07:54:53;;;;;;;;;;;;;;;21.52;67.89;100210.96;1682121;85;20139;-87
2021/06/11 07:57:18;;;;;;;;;;;;;;;21.63;67.68;100202.11;1695631;84;20123;-89
2021/06/11 07:59:44;;;;;;;;;;;;;;;21.71;66.90;100210.05;1669121;85;20526;-87
2021/06/11 08:02:11;;;;;;;;;;;;;;;21.76;66.43;100204.97;1667575;86;20117;-85
2021/06/11 08:04:38;;;;;;;;;;;;;;;21.82;66.19;100200.72;1668320;86;20098;-84
2021/06/11 08:07:04;;;;;;;;;;;;;;;21.85;65.62;100204.34;1667473;85;20197;-86
2021/06/11 08:09:30;;;;;;;;;;;;;;;21.89;65.40;100211.02;1660963;85;20110;-87
2021/06/11 08:11:56;;;;;;;;;;;;;;;21.91;63.97;100219.19;1674119;85;20146;-90
2021/06/11 08:14:22;;;;;;;;;;;;;;;21.96;63.55;100215.96;1695684;85;20174;-83
2021/06/11 08:16:48;;;;;;;;;;;;;;;21.96;62.30;100218.12;1693331;84;20159;-86
2021/06/11 08:19:14;;;;;;;;;;;;;;;22.00;62.56;100213.21;1679890;85;20161;-86
2021/06/11 08:21:39;;;;;;;;;;;;;;;22.05;62.94;100204.61;1668229;85;20133;-87
2021/06/11 08:24:05;;;;;;;;;;;;;;;22.14;62.78;100212.84;1668395;86;20134;-87
2021/06/11 08:26:31;;;;;;;;;;;;;;;22.21;62.40;100205.72;1667869;86;20451;-85
2021/06/11 08:28:57;;;;;;;;;;;;;;;22.28;63.02;100205.80;1667438;86;20141;-84
2021/06/11 08:31:22;;;;;;;;;;;;;;;22.35;62.18;100211.58;1665246;86;20168;-87
2021/06/11 08:33:48;;;;;;;;;;;;;;;22.41;62.49;100202.76;1665319;86;20141;-86
2021/06/11 08:36:15;;;;;;;;;;;;;;;22.50;62.20;100193.20;1664994;86;20462;-85
2021/06/11 08:38:41;;;;;;;;;;;;;;;22.58;61.29;100199.81;1668096;85;20129;-86
2021/06/11 08:41:10;;;;;;;;;;;;;;;22.64;60.87;100197.19;1665579;85;20577;-88
2021/06/11 08:43:36;;;;;;;;;;;;;;;22.74;59.45;100200.03;1664066;86;20167;-88
2021/06/11 08:46:02;;;;;;;;;;;;;;;22.77;58.51;100201.86;1665042;86;20133;-87
2021/06/11 08:48:27;;;;;;;;;;;;;;;22.83;59.03;100200.22;1665394;85;20471;-89
2021/06/11 08:50:53;;;;;;;;;;;;;;;22.93;60.10;100200.27;1665230;86;20161;-84
2021/06/11 08:53:19;;;;;;;;;;;;;;;23.04;59.41;100193.50;1666221;86;20138;-88
2021/06/11 08:55:46;;;;;;;;;;;;;;;23.11;58.89;100197.59;1665311;85;20443;-90
2021/06/11 08:58:13;;;;;;;;;;;;;;;23.14;58.12;100202.06;1665000;86;20165;-87
2021/06/11 09:00:38;;;;;;;;;;;;;;;23.15;57.93;100196.16;1665214;86;20157;-87
2021/06/11 09:03:25;;;;;;;;;;;;;;;23.14;57.55;100203.92;1663745;85;20098;-90
2021/06/11 09:05:56;;;;;;;;;;;;;;;23.15;56.63;100198.85;1660757;86;20137;-88
2021/06/11 09:08:27;;;;;;;;;;;;;;;23.24;56.05;100196.85;1660675;86;20148;-88
2021/06/11 09:10:55;;;;;;;;;;;;;;;23.30;55.92;100198.77;1665545;86;20435;-87
2021/06/11 09:13:27;;;;;;;;;;;;;;;23.31;54.64;100199.89;1660485;86;20141;-85
2021/06/11 09:16:11;;;;;;;;;;;;;;;23.28;54.95;100204.84;1661881;86;20443;-88
2021/06/11 09:18:58;;;;;;;;;;;;;;;23.26;55.05;100210.41;1664445;85;20115;-87
2021/06/11 09:21:44;;;;;;;;;;;;;;;23.22;55.08;100202.41;1663998;86;20105;-87
2021/06/11 09:24:27;;;;;;;;;;;;;;;23.22;54.49;100215.88;1663816;85;20168;-86
2021/06/11 09:27:04;;;;;;;;;;;;;;;23.25;54.42;100199.33;1664091;86;20459;-88
2021/06/11 09:29:36;;;;;;;;;;;;;;;23.34;53.93;100207.58;1662196;86;20166;-87
2021/06/11 09:32:22;;;;;;;;;;;;;;;23.45;54.24;100208.05;1664441;85;20156;-88
2021/06/11 09:34:51;;;;;;;;;;;;;;;23.54;53.12;100206.87;1663306;86;20189;-84
2021/06/11 09:37:20;;;;;;;;;;;;;;;23.59;52.87;100201.21;1666278;85;20189;-88
2021/06/11 09:39:49;;;;;;;;;;;;;;;23.65;52.93;100203.59;1664404;85;20133;-86
2021/06/11 09:42:19;;;;;;;;;;;;;;;23.74;52.33;100201.61;1665527;85;20460;-90
2021/06/11 09:44:58;;;;;;;;;;;;;;;23.83;51.96;100195.85;1664444;85;20137;-88
2021/06/11 09:47:46;;;;;;;;;;;;;;;23.90;51.81;100205.83;1663789;86;20157;-84
2021/06/11 09:50:33;;;;;;;;;;;;;;;23.96;51.67;100202.34;1665358;86;20526;-86
2021/06/11 09:53:03;;;;;;;;;;;;;;;24.05;50.44;100204.65;1667417;85;20192;-89
2021/06/11 09:55:36;;;;;;;;;;;;;;;24.10;51.08;100207.55;1658386;85;20188;-86
2021/06/11 09:58:17;;;;;;;;;;;;;;;24.20;50.97;100205.82;1667355;85;20475;-88
2021/06/11 10:00:46;;;;;;;;;;;;;;;24.27;50.86;100195.05;1666141;85;20125;-88
2021/06/11 10:03:17;;;;;;;;;;;;;;;24.34;51.22;100198.59;1668259;85;20434;-90
2021/06/11 10:05:44;;;;;;;;;;;;;;;24.41;50.63;100194.06;1663999;85;20129;-89
2021/06/11 10:08:10;;;;;;;;;;;;;;;24.48;51.11;100192.23;1668738;85;20105;-87
2021/06/11 10:10:38;;;;;;;;;;;;;;;24.57;50.45;100188.80;1665935;85;20604;-90
2021/06/11 10:13:04;;;;;;;;;;;;;;;24.64;49.41;100183.41;1667048;85;20141;-85
2021/06/11 10:15:31;;;;;;;;;;;;;;;24.67;49.79;100187.05;1665069;85;20443;-86
2021/06/11 10:17:59;;;;;;;;;;;;;;;24.71;49.42;100189.14;1666927;85;20595;-86
2021/06/11 10:20:25;;;;;;;;;;;;;;;24.76;49.57;100184.46;1667333;84;20105;-85
2021/06/11 10:22:51;;;;;;;;;;;;;;;24.80;49.82;100170.34;1667761;85;20257;-85
2021/06/11 10:25:17;;;;;;;;;;;;;;;24.80;49.52;100169.51;1667012;85;20133;-84
2021/06/11 10:27:43;;;;;;;;;;;;;;;24.80;49.30;100168.98;1667249;86;20140;-86
2021/06/11 10:30:11;;;;;;;;;;;;;;;24.76;48.23;100167.75;1665103;86;20121;-87
2021/06/11 10:32:40;;;;;;;;;;;;;;;24.70;48.52;100167.23;1666811;85;20145;-89
2021/06/11 10:35:09;;;;;;;;;;;;;;;24.70;48.63;100166.41;1667789;86;20156;-85
2021/06/11 10:37:40;;;;;;;;;;;;;;;24.63;47.62;100169.09;1668009;86;20129;-85
2021/06/11 10:40:19;;;;;;;;;;;;;;;24.54;48.00;100171.68;1668067;85;20145;-89
2021/06/11 10:42:44;;;;;;;;;;;;;;;24.44;47.50;100170.73;1667923;85;20458;-90
2021/06/11 10:45:15;;;;;;;;;;;;;;;24.40;47.82;100164.59;1668317;85;20172;-85
2021/06/11 10:47:41;;;;;;;;;;;;;;;24.42;47.59;100162.04;1667118;85;20166;-90
2021/06/11 10:50:10;;;;;;;;;;;;;;;24.45;47.31;100165.67;1640942;85;20130;-85
2021/06/11 10:52:50;;;;;;;;;;;;;;;24.47;46.97;100158.72;1657025;85;20129;-92
2021/06/11 10:55:24;;;;;;;;;;;;;;;24.56;46.52;100162.35;1672180;85;20133;-86
2021/06/11 10:57:58;;;;;;;;;;;;;;;24.67;46.77;100157.38;1695515;84;20115;-90
2021/06/11 11:00:33;;;;;;;;;;;;;;;24.76;46.98;100154.26;1695533;85;20457;-88
2021/06/11 11:03:01;;;;;;;;;;;;;;;24.89;46.96;100157.47;1689502;84;20189;-86
2021/06/11 11:05:30;;;;;;;;;;;;;;;25.05;46.23;100152.16;1636590;85;20145;-90
2021/06/11 11:07:57;;;;;;;;;;;;;;;25.17;47.74;100162.67;1675942;85;20145;-86
2021/06/11 11:10:47;;;;;;;;;;;;;;;25.31;46.86;100158.06;1695789;84;20457;-87
2021/06/11 11:13:14;;;;;;;;;;;;;;;25.42;45.57;100159.27;1694506;85;20135;-85
2021/06/11 11:15:51;;;;;;;;;;;;;;;25.48;45.07;100157.08;1687362;84;20562;-85
2021/06/11 11:18:23;;;;;;;;;;;;;;;25.47;44.50;100160.30;1671634;85;20184;-85
2021/06/11 11:20:47;;;;;;;;;;;;;;;25.48;44.86;100169.23;1664034;85;20475;-87
2021/06/11 11:23:14;;;;;;;;;;;;;;;25.47;45.31;100164.35;1665417;85;20194;-86
2021/06/11 11:25:41;;;;;;;;;;;;;;;25.48;44.56;100161.95;1667932;85;20160;-87
2021/06/11 11:28:09;;;;;;;;;;;;;;;25.43;43.92;100167.15;1666089;85;20396;-85
2021/06/11 11:30:36;;;;;;;;;;;;;;;25.39;45.33;100169.97;1667786;85;20494;-85
2021/06/11 11:33:03;;;;;;;;;;;;;;;25.40;44.38;100166.74;1665302;85;20133;-86
2021/06/11 11:35:32;;;;;;;;;;;;;;;25.32;43.98;100166.98;1663789;86;20136;-89
2021/06/11 11:38:00;;;;;;;;;;;;;;;25.20;44.24;100171.67;1662917;85;20166;-85
2021/06/11 11:40:27;;;;;;;;;;;;;;;25.09;44.06;100170.12;1663105;85;20432;-88
2021/06/11 11:42:58;;;;;;;;;;;;;;;24.97;44.33;100176.66;1666478;85;20225;-90
2021/06/11 11:45:26;;;;;;;;;;;;;;;24.90;44.64;100167.74;1663908;86;20165;-87
2021/06/11 11:47:57;;;;;;;;;;;;;;;24.82;44.32;100169.32;1668055;85;20125;-87
2021/06/11 11:50:24;;;;;;;;;;;;;;;24.74;44.41;100169.81;1661513;84;20144;-88
2021/06/11 11:52:50;;;;;;;;;;;;;;;24.66;44.64;100162.47;1666710;85;20850;-85
2021/06/11 11:55:16;;;;;;;;;;;;;;;24.59;44.56;100165.16;1666301;85;20158;-88
2021/06/11 11:57:42;;;;;;;;;;;;;;;24.53;45.08;100163.28;1665074;85;20146;-90
2021/06/11 12:00:12;;;;;;;;;;;;;;;24.49;45.26;100161.52;1667749;85;20161;-86
2021/06/11 12:02:38;;;;;;;;;;;;;;;24.44;45.02;100163.99;1667636;85;20157;-84
2021/06/11 12:05:05;;;;;;;;;;;;;;;24.35;45.34;100158.48;1663790;86;20134;-86
2021/06/11 12:07:30;;;;;;;;;;;;;;;24.27;44.84;100162.70;1665992;85;20161;-87
2021/06/11 12:09:58;;;;;;;;;;;;;;;24.17;44.71;100156.36;1666135;86;20424;-87
2021/06/11 12:12:24;;;;;;;;;;;;;;;24.12;44.78;100153.46;1667708;85;20189;-86
2021/06/11 12:14:49;;;;;;;;;;;;;;;24.07;44.87;100158.62;1667620;85;20148;-88
2021/06/11 12:17:15;;;;;;;;;;;;;;;24.03;44.81;100156.84;1667458;85;20443;-88
2021/06/11 12:19:41;;;;;;;;;;;;;;;24.02;44.97;100151.64;1667740;86;20142;-87
2021/06/11 12:22:07;;;;;;;;;;;;;;;24.04;45.24;100150.94;1667416;86;20164;-87
2021/06/11 12:24:34;;;;;;;;;;;;;;;24.04;45.51;100149.59;1668108;86;20443;-84
2021/06/11 12:26:59;;;;;;;;;;;;;;;24.05;45.35;100150.75;1667344;85;20156;-90
2021/06/11 12:29:25;;;;;;;;;;;;;;;23.98;45.82;100138.27;1667632;86;20224;-90
2021/06/11 12:31:51;;;;;;;;;;;;;;;24.07;45.55;100154.58;1667582;86;20469;-85
2021/06/11 12:34:18;;;;;;;;;;;;;;;24.04;45.02;100149.59;1667561;85;20153;-87
2021/06/11 12:36:44;;;;;;;;;;;;;;;23.98;45.10;100150.39;1667813;86;20165;-86
2021/06/11 12:39:12;;;;;;;;;;;;;;;23.89;45.43;100151.11;1667436;86;20162;-90